Time;durP1;ratioP1;P1;durP2;ratioP2;P2;SDS_P1;SDS_P2;PMS_P1;PMS_P2;Temp;Humidity;BMP_temperature;BMP_pressure;BME280_temperature;BME280_humidity;BME280_pressure;Samples;Min_cycle;Max_cycle;Signal;HPM_P1;HPM_P2
2022/11/07 00:00:27;;;;;;;26.75;14.63;;;;;;;15.00;84.01;100783.38;5043381;28;20037;-68
2022/11/07 00:02:54;;;;;;;25.27;15.50;;;;;;;14.96;84.19;100773.88;5056503;28;20100;-68
2022/11/07 00:05:21;;;;;;;23.80;14.45;;;;;;;14.98;84.36;100785.69;5044150;28;20128;-68
2022/11/07 00:07:48;;;;;;;34.17;14.75;;;;;;;14.95;84.35;100780.66;5044448;28;20060;-67
2022/11/07 00:10:15;;;;;;;23.75;14.80;;;;;;;14.95;83.85;100780.66;5049536;28;20053;-68
2022/11/07 00:12:42;;;;;;;40.70;16.48;;;;;;;14.90;84.28;100773.94;5043466;28;20061;-68
2022/11/07 00:15:09;;;;;;;27.45;15.23;;;;;;;14.92;84.33;100770.84;5041335;28;20053;-68
2022/11/07 00:17:36;;;;;;;29.52;15.02;;;;;;;14.84;84.53;100763.94;5048162;28;20414;-68
2022/11/07 00:20:03;;;;;;;26.30;16.02;;;;;;;14.82;84.65;100763.41;5046792;28;20041;-67
2022/11/07 00:22:30;;;;;;;27.67;14.15;;;;;;;14.83;84.92;100773.50;5039480;28;20072;-68
2022/11/07 00:24:57;;;;;;;28.33;14.73;;;;;;;14.78;85.16;100764.31;5037943;28;20044;-67
2022/11/07 00:27:23;;;;;;;30.20;15.50;;;;;;;14.80;85.14;100767.66;5049705;28;20040;-67
2022/11/07 00:29:50;;;;;;;30.30;15.93;;;;;;;14.79;85.16;100763.16;5041668;28;20057;-67
2022/11/07 00:32:17;;;;;;;35.33;16.23;;;;;;;14.78;84.93;100762.34;5037653;28;20897;-67
2022/11/07 00:34:44;;;;;;;24.45;17.67;;;;;;;14.79;85.10;100755.56;5036059;28;20052;-67
2022/11/07 00:37:11;;;;;;;30.52;13.07;;;;;;;14.74;85.49;100752.84;5040406;28;20049;-68
2022/11/07 00:39:37;;;;;;;33.95;14.07;;;;;;;14.80;85.43;100757.25;5044148;28;20042;-67
2022/11/07 00:42:04;;;;;;;35.20;14.45;;;;;;;14.83;85.38;100755.78;5035629;28;20049;-67
2022/11/07 00:44:31;;;;;;;26.40;14.13;;;;;;;14.83;85.78;100756.63;5034552;28;20045;-67
2022/11/07 00:46:58;;;;;;;26.75;13.45;;;;;;;14.77;85.71;100741.00;5047802;28;20048;-67
2022/11/07 00:49:25;;;;;;;32.53;14.23;;;;;;;14.79;86.03;100743.50;5040535;28;20047;-67
2022/11/07 00:51:51;;;;;;;27.38;15.48;;;;;;;14.61;86.14;100705.81;5033301;28;20049;-66
2022/11/07 00:54:19;;;;;;;25.33;16.13;;;;;;;14.81;86.11;100746.84;5042075;28;20049;-67
2022/11/07 00:56:45;;;;;;;27.92;15.32;;;;;;;14.79;86.08;100744.31;5040868;28;20052;-67
2022/11/07 00:59:12;;;;;;;24.73;14.13;;;;;;;14.82;86.29;100740.06;5051071;28;20045;-67
2022/11/07 01:01:39;;;;;;;34.00;15.43;;;;;;;14.84;86.32;100741.44;5043605;28;20056;-67
2022/11/07 01:06:52;;;;;;;31.15;16.25;;;;;;;14.80;86.40;100729.16;5047006;28;20159;-67
2022/11/07 01:09:20;;;;;;;24.83;14.32;;;;;;;14.77;86.49;100715.69;5045947;28;20056;-67
2022/11/07 01:11:48;;;;;;;26.00;13.73;;;;;;;14.82;86.39;100726.03;5048729;28;20041;-67
2022/11/07 01:14:17;;;;;;;28.77;15.65;;;;;;;14.81;86.24;100728.00;5034422;28;20057;-67
2022/11/07 01:16:44;;;;;;;37.17;15.32;;;;;;;14.77;86.17;100729.75;5049006;28;20048;-67
2022/11/07 01:19:11;;;;;;;28.85;16.40;;;;;;;14.72;86.51;100721.38;5048710;28;20067;-68
2022/11/07 01:21:40;;;;;;;20.38;13.45;;;;;;;14.73;86.56;100725.84;5049822;28;20045;-68
2022/11/07 01:24:08;;;;;;;28.88;16.73;;;;;;;14.68;86.59;100717.50;5045022;28;20495;-68
2022/11/07 01:26:36;;;;;;;35.40;15.43;;;;;;;14.67;86.36;100722.31;5042860;28;20077;-67
2022/11/07 01:29:03;;;;;;;25.10;14.05;;;;;;;14.68;86.33;100717.50;5035590;28;20049;-67
2022/11/07 01:31:30;;;;;;;25.10;15.70;;;;;;;14.72;86.58;100720.56;5037895;28;20045;-67
2022/11/07 01:34:03;;;;;;;31.17;16.45;;;;;;;14.69;86.56;100719.19;5037383;28;20052;-67
2022/11/07 01:36:33;;;;;;;25.90;14.45;;;;;;;14.61;86.47;100708.63;5041943;28;20056;-67
2022/11/07 01:39:00;;;;;;;23.45;16.65;;;;;;;14.63;86.65;100717.56;5041190;28;20044;-67
2022/11/07 01:41:30;;;;;;;24.88;16.17;;;;;;;14.66;86.49;100714.16;5048840;28;20519;-67
2022/11/07 01:43:59;;;;;;;;;;;;;;;14.36;87.73;100716.25;5035500;28;20155;-66
2022/11/07 01:46:33;;;;;;;30.00;14.32;;;;;;;14.58;87.18;100717.66;5038380;28;19928;-67
2022/11/07 01:49:08;;;;;;;21.33;14.88;;;;;;;14.58;86.74;100714.84;5033320;28;20423;-66
2022/11/07 01:51:49;;;;;;;25.70;17.05;;;;;;;14.59;86.87;100716.50;5034483;28;20049;-67
2022/11/07 01:54:21;;;;;;;18.90;14.15;;;;;;;14.60;86.93;100718.22;5033343;28;20042;-66
2022/11/07 01:56:49;;;;;;;24.13;16.65;;;;;;;14.63;87.16;100714.75;5037704;28;20400;-66
2022/11/07 01:59:21;;;;;;;20.90;14.18;;;;;;;14.62;86.98;100715.91;5041177;28;20045;-68
2022/11/07 02:01:48;;;;;;;34.72;16.95;;;;;;;14.61;87.10;100714.25;5036582;28;20045;-68
2022/11/07 02:04:16;;;;;;;22.60;15.40;;;;;;;14.54;86.91;100697.75;5038317;28;20473;-68
2022/11/07 02:06:53;;;;;;;23.75;15.30;;;;;;;14.62;86.83;100704.66;5038084;28;20075;-67
2022/11/07 02:09:20;;;;;;;32.67;15.88;;;;;;;14.62;86.87;100704.66;5038222;28;20049;-68
2022/11/07 02:11:47;;;;;;;22.50;14.73;;;;;;;14.56;87.22;100698.28;5036062;28;20046;-68
2022/11/07 02:14:15;;;;;;;30.40;17.70;;;;;;;14.53;87.08;100686.81;5049286;28;20057;-68
2022/11/07 02:16:42;;;;;;;19.90;15.70;;;;;;;14.52;87.21;100682.34;5045502;28;20075;-68
2022/11/07 02:19:21;;;;;;;25.10;15.70;;;;;;;14.57;86.87;100699.13;5043797;28;20056;-68
2022/11/07 02:22:02;;;;;;;26.27;16.67;;;;;;;14.50;87.10;100690.22;5041662;28;20049;-68
2022/11/07 02:24:32;;;;;;;21.20;15.52;;;;;;;14.55;87.32;100693.81;5036246;28;20049;-68
2022/11/07 02:27:05;;;;;;;24.70;16.10;;;;;;;14.55;87.11;100688.19;5032134;28;20049;-68
2022/11/07 02:29:35;;;;;;;29.38;15.35;;;;;;;14.50;87.44;100677.03;5035317;28;20065;-68
2022/11/07 02:32:05;;;;;;;20.50;14.73;;;;;;;14.55;87.09;100687.34;5047858;28;20419;-68
2022/11/07 02:34:32;;;;;;;26.58;15.48;;;;;;;14.53;86.96;100686.81;5038597;28;20053;-68
2022/11/07 02:37:02;;;;;;;27.90;15.52;;;;;;;14.49;87.01;100669.69;5041891;28;20056;-69
2022/11/07 02:39:29;;;;;;;22.77;15.25;;;;;;;14.52;87.42;100682.34;5071705;28;20419;-68
2022/11/07 02:41:59;;;;;;;21.75;16.52;;;;;;;14.50;87.12;100673.38;5054568;28;20049;-69
2022/11/07 02:44:28;;;;;;;27.02;17.15;;;;;;;14.53;87.21;100672.75;5046145;28;20052;-69
2022/11/07 02:46:55;;;;;;;26.63;16.65;;;;;;;14.48;87.18;100667.19;5042896;28;20049;-69
2022/11/07 02:49:22;;;;;;;22.88;15.60;;;;;;;14.50;87.39;100677.03;5035941;28;20053;-69
2022/11/07 02:51:49;;;;;;;19.83;16.17;;;;;;;14.41;87.15;100659.97;5041078;28;20411;-68
2022/11/07 02:54:16;;;;;;;20.60;15.73;;;;;;;14.52;87.25;100671.09;5035495;28;20080;-68
2022/11/07 02:56:43;;;;;;;20.08;15.70;;;;;;;14.35;87.27;100643.50;5043114;28;20084;-68
2022/11/07 02:59:10;;;;;;;23.00;15.77;;;;;;;14.50;87.20;100662.13;5035822;28;20080;-68
2022/11/07 03:01:37;;;;;;;19.25;15.82;;;;;;;14.51;87.41;100672.25;5041412;28;20045;-68
2022/11/07 03:04:04;;;;;;;25.40;16.23;;;;;;;14.46;87.57;100665.53;5038408;28;20056;-65
2022/11/07 03:06:31;;;;;;;19.23;15.65;;;;;;;14.43;87.37;100649.28;5032736;28;20076;-65
2022/11/07 03:08:58;;;;;;;21.92;15.07;;;;;;;14.50;87.27;100662.13;5034776;28;20047;-66
2022/11/07 03:11:25;;;;;;;24.00;16.38;;;;;;;14.49;87.71;100655.66;5035585;28;20041;-65
2022/11/07 03:13:53;;;;;;;18.80;16.00;;;;;;;14.53;87.50;100661.53;5032819;28;20061;-66
2022/11/07 03:16:20;;;;;;;18.23;14.50;;;;;;;14.53;87.52;100659.56;5033513;28;20048;-65
2022/11/07 03:18:47;;;;;;;20.65;14.85;;;;;;;14.30;87.33;100618.31;5033595;28;20508;-65
2022/11/07 03:21:14;;;;;;;20.65;14.80;;;;;;;14.47;87.56;100641.09;5035300;28;20048;-65
2022/11/07 03:23:41;;;;;;;19.00;14.38;;;;;;;14.52;87.33;100648.63;5035090;28;20053;-65
2022/11/07 03:26:07;;;;;;;23.27;15.40;;;;;;;14.51;87.60;100646.97;5033973;28;20419;-64
2022/11/07 03:28:34;;;;;;;19.17;14.10;;;;;;;14.55;87.30;100648.00;5035841;28;20053;-64
2022/11/07 03:31:03;;;;;;;17.73;13.98;;;;;;;14.57;86.97;100642.94;5038570;28;20599;-64
2022/11/07 03:33:30;;;;;;;22.65;14.68;;;;;;;14.57;87.14;100640.13;5038603;28;20079;-64
2022/11/07 03:35:57;;;;;;;28.67;15.50;;;;;;;14.50;86.71;100632.06;5044006;28;20048;-64
2022/11/07 03:38:24;;;;;;;18.15;13.57;;;;;;;14.59;87.04;100637.81;5045916;28;20053;-64
2022/11/07 03:40:51;;;;;;;23.30;15.13;;;;;;;14.63;86.66;100638.88;5044950;28;20076;-64
2022/11/07 03:43:18;;;;;;;20.27;15.82;;;;;;;14.62;86.92;100631.59;5044694;28;20050;-64
2022/11/07 03:45:44;;;;;;;17.63;15.50;;;;;;;14.67;86.40;100642.78;5043330;28;20049;-64
2022/11/07 03:48:11;;;;;;;23.48;15.35;;;;;;;14.63;86.21;100622.00;5046878;28;20048;-65
2022/11/07 03:50:38;;;;;;;21.27;15.05;;;;;;;14.51;86.42;100610.44;5038216;28;20056;-65
2022/11/07 03:53:05;;;;;;;21.38;14.48;;;;;;;14.65;86.03;100622.56;5046715;28;20049;-65
2022/11/07 03:55:31;;;;;;;16.92;13.65;;;;;;;14.64;86.41;100623.72;5053130;28;20048;-64
2022/11/07 03:57:58;;;;;;;21.95;14.88;;;;;;;14.56;86.20;100615.94;5044369;28;20049;-66
2022/11/07 04:00:25;;;;;;;18.20;13.63;;;;;;;14.49;86.28;100615.47;5042809;28;20049;-67
2022/11/07 04:02:52;;;;;;;16.05;13.93;;;;;;;14.46;86.15;100600.91;5081124;28;20045;-66
2022/11/07 04:05:19;;;;;;;16.13;13.55;;;;;;;14.51;86.14;100616.88;5044929;28;20467;-67
2022/11/07 04:07:46;;;;;;;15.48;12.07;;;;;;;14.49;86.33;100609.84;5042616;28;20068;-66
2022/11/07 04:10:12;;;;;;;16.15;14.18;;;;;;;14.40;86.39;100592.88;5045314;28;20045;-66
2022/11/07 04:18:10;;;;;;;17.75;13.82;;;;;;;14.42;86.09;100602.63;5046393;28;20053;-66
2022/11/07 04:20:37;;;;;;;18.80;13.50;;;;;;;14.38;85.89;100604.41;5043111;28;20044;-66
2022/11/07 04:23:04;;;;;;;16.98;13.73;;;;;;;14.31;86.28;100598.31;5045583;28;20052;-66
2022/11/07 04:28:16;;;;;;;15.23;13.67;;;;;;;14.40;85.93;100601.31;5040938;28;20042;-66
2022/11/07 04:30:43;;;;;;;21.20;13.57;;;;;;;14.38;85.91;100604.41;5045176;28;20072;-67
2022/11/07 04:33:10;;;;;;;16.92;13.98;;;;;;;14.36;86.23;100600.25;5040085;28;20049;-67
2022/11/07 04:35:37;;;;;;;16.08;13.32;;;;;;;14.32;86.00;100599.16;5044093;28;20051;-67
2022/11/07 04:38:04;;;;;;;12.82;11.65;;;;;;;14.31;86.10;100589.06;5048770;28;20392;-67
2022/11/07 04:40:31;;;;;;;15.75;13.02;;;;;;;14.31;86.09;100598.31;5037999;28;20044;-66
2022/11/07 04:42:58;;;;;;;15.05;13.50;;;;;;;14.28;85.99;100593.31;5039049;28;20500;-66
2022/11/07 04:45:24;;;;;;;18.35;14.93;;;;;;;14.33;86.05;100593.25;5040563;28;20053;-66
2022/11/07 04:47:51;;;;;;;22.00;13.68;;;;;;;14.31;86.05;100591.88;5042383;28;20048;-66
2022/11/07 04:50:19;;;;;;;15.00;12.60;;;;;;;14.33;86.00;100586.81;5038204;28;20152;-66
2022/11/07 04:52:46;;;;;;;14.80;13.32;;;;;;;14.29;86.12;100583.78;5048726;28;20049;-66
2022/11/07 04:55:19;;;;;;;13.30;11.90;;;;;;;14.26;86.30;100580.75;5040958;28;20045;-66
2022/11/07 04:57:47;;;;;;;13.25;11.95;;;;;;;14.27;86.32;100579.59;5036199;28;20052;-66
2022/11/07 05:00:15;;;;;;;15.77;12.30;;;;;;;14.18;86.13;100562.56;5045161;28;20052;-65
2022/11/07 05:02:42;;;;;;;18.00;13.57;;;;;;;14.21;86.26;100576.00;5057392;28;20419;-66
2022/11/07 05:05:10;;;;;;;14.65;13.07;;;;;;;14.25;86.00;100579.06;5047647;28;20075;-66
2022/11/07 05:07:37;;;;;;;19.92;13.15;;;;;;;14.24;86.03;100581.03;5037940;28;20410;-66
2022/11/07 05:10:06;;;;;;;14.52;12.10;;;;;;;14.20;86.11;100569.56;5041899;28;20056;-66
2022/11/07 05:12:37;;;;;;;14.70;12.35;;;;;;;14.15;86.27;100566.00;5041188;28;20037;-67
2022/11/07 05:15:05;;;;;;;13.55;12.23;;;;;;;14.14;86.18;100555.91;5040995;28;20051;-66
2022/11/07 05:17:31;;;;;;;15.13;13.05;;;;;;;14.15;86.17;100560.38;5043055;28;20049;-67
2022/11/07 05:19:58;;;;;;;16.90;13.43;;;;;;;14.22;86.00;100574.88;5052560;28;20060;-66
2022/11/07 05:25:10;;;;;;;18.35;12.82;;;;;;;14.25;86.03;100576.25;5047648;28;20055;-67
2022/11/07 05:27:37;;;;;;;15.23;12.15;;;;;;;14.19;86.13;100562.28;5042845;28;20073;-67
2022/11/07 05:30:05;;;;;;;16.20;12.40;;;;;;;14.21;86.11;100567.59;5043282;28;20055;-67
2022/11/07 05:32:37;;;;;;;15.02;13.48;;;;;;;14.23;85.96;100570.94;5036292;28;20046;-66
2022/11/07 05:35:04;;;;;;;15.75;12.40;;;;;;;14.20;86.14;100563.13;5036340;28;20053;-66
2022/11/07 05:37:31;;;;;;;13.32;12.02;;;;;;;14.25;85.81;100570.63;5033288;28;20045;-66
2022/11/07 05:39:58;;;;;;;18.17;13.60;;;;;;;14.24;85.93;100581.03;5047497;28;20392;-66
2022/11/07 05:42:25;;;;;;;12.90;11.25;;;;;;;14.28;85.84;100581.25;5035069;28;20408;-67
2022/11/07 05:44:51;;;;;;;17.05;13.00;;;;;;;14.30;85.64;100571.38;5050904;28;20044;-66
2022/11/07 05:47:18;;;;;;;14.25;12.60;;;;;;;14.34;85.42;100564.00;5041024;28;20462;-67
2022/11/07 05:49:45;;;;;;;15.30;13.80;;;;;;;14.36;85.52;100556.13;5033723;28;20057;-67
2022/11/07 05:52:12;;;;;;;16.43;13.03;;;;;;;14.39;85.47;100555.53;5036188;28;20041;-66
2022/11/07 05:54:39;;;;;;;19.02;13.35;;;;;;;14.33;85.22;100553.09;5051210;28;20567;-67
2022/11/07 05:57:05;;;;;;;14.07;12.68;;;;;;;14.32;85.14;100560.66;5042366;28;20059;-66
2022/11/07 05:59:32;;;;;;;15.10;12.00;;;;;;;14.27;85.28;100549.53;5044901;28;20555;-66
2022/11/07 06:01:59;;;;;;;16.75;13.52;;;;;;;14.35;85.03;100559.22;5045120;28;20468;-66
2022/11/07 06:04:26;;;;;;;13.90;11.93;;;;;;;14.31;85.14;100552.56;5039449;28;20141;-67
2022/11/07 06:06:53;;;;;;;17.58;12.60;;;;;;;14.37;85.12;100557.78;5037778;28;20132;-67
2022/11/07 06:09:19;;;;;;;12.40;11.15;;;;;;;14.38;84.95;100556.63;5044490;28;20080;-66
2022/11/07 06:11:46;;;;;;;14.63;12.10;;;;;;;14.36;85.02;100547.69;5044078;28;20050;-66
2022/11/07 06:14:13;;;;;;;12.55;11.18;;;;;;;14.35;84.67;100548.81;5037615;28;20045;-67
2022/11/07 06:16:40;;;;;;;13.45;11.63;;;;;;;14.35;84.81;100546.00;5041917;28;20052;-67
2022/11/07 06:19:07;;;;;;;13.70;12.27;;;;;;;14.35;84.86;100548.81;5046616;28;20443;-67
2022/11/07 06:21:34;;;;;;;16.55;12.48;;;;;;;14.37;84.75;100549.34;5040379;28;20045;-67
2022/11/07 06:24:01;;;;;;;14.23;12.82;;;;;;;14.38;84.81;100536.13;5041439;28;20056;-67
2022/11/07 06:26:28;;;;;;;14.00;12.48;;;;;;;14.40;84.47;100540.31;5044725;28;20140;-67
2022/11/07 06:28:55;;;;;;;14.88;11.85;;;;;;;14.45;84.58;100540.22;5039491;28;20071;-67
2022/11/07 06:31:22;;;;;;;13.38;11.57;;;;;;;14.35;84.48;100534.78;5041048;28;20057;-67
2022/11/07 06:33:50;;;;;;;13.50;11.65;;;;;;;14.39;84.39;100549.03;5035019;28;20051;-67
2022/11/07 06:36:17;;;;;;;13.55;11.90;;;;;;;14.31;84.41;100536.53;5031637;28;20132;-67
2022/11/07 06:38:44;;;;;;;17.05;12.45;;;;;;;14.26;84.54;100535.81;5041157;28;20053;-67
2022/11/07 06:41:13;;;;;;;12.47;11.07;;;;;;;14.21;84.56;100525.47;5045263;28;20045;-68
2022/11/07 06:43:40;;;;;;;11.00;9.88;;;;;;;14.17;84.58;100525.25;5037746;28;20519;-68
2022/11/07 06:46:10;;;;;;;13.50;11.23;;;;;;;14.16;84.48;100519.94;5039396;28;20056;-67
2022/11/07 06:48:37;;;;;;;;;;;;;;;13.87;85.08;100523.72;5044070;28;20046;-67
2022/11/07 06:51:05;;;;;;;10.88;9.70;;;;;;;14.03;85.01;100513.13;5044636;28;19927;-66
2022/11/07 06:53:33;;;;;;;11.70;10.70;;;;;;;14.01;84.71;100508.94;5033584;28;20053;-71
2022/11/07 06:56:01;;;;;;;14.82;12.32;;;;;;;14.06;84.59;100517.28;5039626;28;20045;-68
2022/11/07 06:58:28;;;;;;;12.85;11.40;;;;;;;13.94;84.66;100507.34;5036236;28;20048;-65
2022/11/07 07:01:03;;;;;;;13.40;12.13;;;;;;;14.02;84.87;100521.81;5041184;28;20057;-65
2022/11/07 07:03:30;;;;;;;11.63;10.48;;;;;;;13.98;84.80;100511.22;5034783;28;20179;-66
2022/11/07 07:06:02;;;;;;;12.80;11.48;;;;;;;13.96;84.42;100507.88;5038517;28;20435;-64
2022/11/07 07:08:32;;;;;;;12.35;11.20;;;;;;;13.99;84.65;100509.25;5040378;28;20052;-65
2022/11/07 07:11:04;;;;;;;11.18;10.18;;;;;;;13.95;84.58;100506.22;5039636;28;20045;-65
2022/11/07 07:13:32;;;;;;;11.57;10.57;;;;;;;13.97;84.43;100519.94;5043719;28;20518;-64
2022/11/07 07:15:59;;;;;;;11.02;10.15;;;;;;;13.84;84.58;100498.25;5032817;28;20044;-65
2022/11/07 07:18:26;;;;;;;11.75;10.65;;;;;;;13.90;84.62;100514.72;5041880;28;20057;-65
2022/11/07 07:21:10;;;;;;;14.03;12.63;;;;;;;13.84;84.46;100515.09;5044851;28;20045;-65
2022/11/07 07:23:38;;;;;;;10.43;9.63;;;;;;;13.79;84.69;100507.59;5043332;28;20045;-65
2022/11/07 07:26:08;;;;;;;12.20;10.93;;;;;;;13.85;84.48;100511.16;5041149;28;20060;-65
2022/11/07 07:28:36;;;;;;;12.88;11.52;;;;;;;13.82;84.47;100515.41;5037309;28;20192;-65
2022/11/07 07:31:09;;;;;;;12.38;11.38;;;;;;;13.85;84.17;100526.03;5041249;28;20053;-65
2022/11/07 07:33:36;;;;;;;16.17;14.85;;;;;;;13.85;84.34;100516.78;5032356;28;20045;-64
2022/11/07 07:36:04;;;;;;;11.00;10.10;;;;;;;13.76;84.41;100502.56;5038049;28;20396;-65
2022/11/07 07:38:30;;;;;;;11.97;10.87;;;;;;;13.83;84.25;100525.47;5048628;28;20056;-65
2022/11/07 07:40:58;;;;;;;16.20;14.95;;;;;;;13.86;84.33;100519.25;5039046;28;20500;-65
2022/11/07 07:43:26;;;;;;;15.07;13.68;;;;;;;13.83;83.88;100517.06;5035086;28;20045;-65
2022/11/07 07:45:57;;;;;;;9.75;8.90;;;;;;;13.71;83.81;100506.31;5042595;28;20049;-65
2022/11/07 07:48:23;;;;;;;10.48;9.57;;;;;;;13.75;83.93;100528.97;5043791;28;20060;-65
2022/11/07 07:50:51;;;;;;;11.32;10.23;;;;;;;13.74;83.89;100516.06;5045788;28;20045;-64
2022/11/07 07:53:18;;;;;;;10.00;9.20;;;;;;;13.83;83.90;100525.47;5034121;28;22195;-65
2022/11/07 07:55:46;;;;;;;12.30;10.35;;;;;;;13.80;83.57;100531.69;5038778;28;20061;-65
2022/11/07 07:58:13;;;;;;;8.13;7.63;;;;;;;13.80;83.60;100534.50;5037983;28;20048;-65
2022/11/07 08:00:40;;;;;;;9.63;8.77;;;;;;;13.73;83.72;100531.25;5044019;28;20048;-66
2022/11/07 08:03:10;;;;;;;9.23;8.30;;;;;;;13.81;83.47;100532.53;5041380;28;20132;-64
2022/11/07 08:05:37;;;;;;;8.88;8.18;;;;;;;13.78;83.46;100528.38;5033199;28;20044;-66
2022/11/07 08:08:06;;;;;;;11.40;10.77;;;;;;;13.87;83.23;100537.75;5034297;28;20045;-65
2022/11/07 08:10:33;;;;;;;15.77;14.47;;;;;;;13.83;82.84;100525.47;5034630;28;20053;-66
2022/11/07 08:13:08;;;;;;;8.27;7.72;;;;;;;13.84;83.17;100529.13;5038323;28;20045;-66
2022/11/07 08:15:35;;;;;;;8.57;8.07;;;;;;;13.88;82.82;100538.59;5045510;28;20052;-66
2022/11/07 08:18:03;;;;;;;11.93;10.75;;;;;;;13.96;82.65;100529.50;5040603;28;20076;-66
2022/11/07 08:20:30;;;;;;;12.35;11.50;;;;;;;14.00;82.52;100541.78;5052323;28;20075;-67
2022/11/07 08:23:02;;;;;;;11.98;11.07;;;;;;;14.04;82.19;100542.03;5052667;28;20496;-66
2022/11/07 08:25:29;;;;;;;9.68;9.07;;;;;;;14.12;82.32;100545.00;5049036;28;20053;-66
2022/11/07 08:27:56;;;;;;;11.57;10.43;;;;;;;14.21;81.98;100540.34;5050797;28;20056;-66
2022/11/07 08:30:23;;;;;;;12.32;11.23;;;;;;;14.45;81.90;100540.22;5045689;28;20040;-66
2022/11/07 08:32:50;;;;;;;11.57;10.20;;;;;;;14.54;80.98;100533.94;5040176;28;20045;-66
2022/11/07 08:35:16;;;;;;;12.00;11.00;;;;;;;14.61;80.74;100543.63;5043181;28;20056;-66
2022/11/07 08:37:43;;;;;;;9.10;8.50;;;;;;;14.57;80.33;100556.66;5047589;28;20045;-66
2022/11/07 08:40:11;;;;;;;11.57;10.75;;;;;;;14.61;80.19;100556.88;5035716;28;20049;-65
2022/11/07 08:42:38;;;;;;;10.40;9.45;;;;;;;14.59;79.75;100553.50;5040673;28;20048;-66
2022/11/07 08:45:05;;;;;;;12.52;11.45;;;;;;;14.64;79.81;100547.81;5046317;28;20041;-66
2022/11/07 08:47:32;;;;;;;14.60;13.35;;;;;;;14.62;79.68;100552.91;5054494;28;20045;-65
2022/11/07 08:49:58;;;;;;;12.82;12.02;;;;;;;14.63;79.71;100565.81;5050126;28;20045;-64
2022/11/07 08:52:25;;;;;;;11.55;10.57;;;;;;;14.69;79.66;100570.19;5044126;28;20500;-65
2022/11/07 08:54:52;;;;;;;9.85;8.95;;;;;;;14.66;79.71;100549.16;5037269;28;20057;-65
2022/11/07 08:57:19;;;;;;;11.43;9.82;;;;;;;14.89;79.15;100574.63;5046351;28;20053;-66
2022/11/07 08:59:45;;;;;;;13.00;11.73;;;;;;;14.89;79.15;100564.22;5042646;28;20152;-65
2022/11/07 09:02:13;;;;;;;10.88;9.95;;;;;;;15.03;79.04;100557.78;5041275;28;20041;-65
2022/11/07 09:04:59;;;;;;;10.60;9.77;;;;;;;15.08;79.04;100564.16;5049881;28;20059;-65
2022/11/07 09:07:26;;;;;;;10.90;10.18;;;;;;;15.10;78.82;100563.84;5048331;28;20045;-65
2022/11/07 09:09:53;;;;;;;11.13;10.43;;;;;;;15.25;78.60;100557.91;5042855;28;20052;-66
2022/11/07 09:12:20;;;;;;;10.05;9.20;;;;;;;15.50;78.46;100550.09;5040184;28;20411;-65
2022/11/07 09:14:47;;;;;;;9.98;9.13;;;;;;;15.60;77.51;100545.09;5035937;28;20055;-65
2022/11/07 09:17:14;;;;;;;8.77;8.18;;;;;;;15.48;76.81;100552.38;5043200;28;20055;-66
2022/11/07 09:19:41;;;;;;;12.20;11.27;;;;;;;15.37;76.77;100541.34;5033848;28;20056;-66
2022/11/07 09:22:08;;;;;;;14.00;12.98;;;;;;;15.33;76.74;100539.47;5040562;28;20041;-66
2022/11/07 09:24:35;;;;;;;12.02;10.90;;;;;;;15.36;77.02;100545.31;5037222;28;20057;-66
2022/11/07 09:27:02;;;;;;;15.90;14.63;;;;;;;15.53;76.60;100557.91;5036244;28;20059;-66
2022/11/07 09:29:28;;;;;;;15.13;13.88;;;;;;;15.78;77.47;100539.66;5034429;28;20483;-65
2022/11/07 09:31:55;;;;;;;12.73;11.55;;;;;;;16.57;76.79;100545.63;5037703;28;20507;-66
2022/11/07 09:34:22;;;;;;;10.70;10.00;;;;;;;17.35;74.49;100535.94;5041971;28;20057;-65
2022/11/07 09:36:49;;;;;;;12.23;11.18;;;;;;;17.89;72.34;100528.16;5041402;28;20072;-66
2022/11/07 09:39:15;;;;;;;10.40;9.77;;;;;;;18.55;72.15;100533.63;5031523;28;20049;-66
2022/11/07 09:42:10;;;;;;;11.07;10.15;;;;;;;18.73;67.76;100509.00;5038473;28;20146;-66
2022/11/07 09:44:57;;;;;;;13.13;12.32;;;;;;;19.06;66.41;100517.72;5033001;28;20045;-66
2022/11/07 09:47:38;;;;;;;15.63;14.63;;;;;;;18.63;66.26;100516.66;5035304;28;20049;-65
2022/11/07 09:50:28;;;;;;;12.95;12.05;;;;;;;18.85;65.89;100526.09;5036879;28;20559;-65
2022/11/07 09:53:05;;;;;;;15.95;14.43;;;;;;;19.03;65.43;100515.56;5042493;28;20075;-65
2022/11/07 09:55:54;;;;;;;13.55;12.55;;;;;;;19.04;64.78;100512.41;5036799;28;20411;-66
2022/11/07 09:58:30;;;;;;;10.85;9.88;;;;;;;19.08;64.90;100516.22;5036646;28;20053;-65
2022/11/07 10:01:02;;;;;;;12.15;11.25;;;;;;;19.07;64.51;100511.69;5043389;28;20049;-66
2022/11/07 10:03:30;;;;;;;12.68;11.63;;;;;;;19.05;64.69;100511.22;5046806;28;20067;-66
2022/11/07 10:06:10;;;;;;;12.95;11.68;;;;;;;19.11;63.75;100518.38;5044757;28;20076;-66
2022/11/07 10:09:15;;;;;;;13.82;13.02;;;;;;;18.78;64.10;100508.81;5046031;28;20072;-67
2022/11/07 10:12:09;;;;;;;14.90;13.75;;;;;;;18.44;64.63;100511.34;5046758;28;20053;-65
2022/11/07 10:15:15;;;;;;;9.70;9.20;;;;;;;18.01;65.59;100525.47;5043617;28;20056;-67
2022/11/07 10:17:57;;;;;;;10.77;9.98;;;;;;;17.87;66.12;100525.63;5036659;28;20056;-65
2022/11/07 10:20:30;;;;;;;10.77;9.82;;;;;;;17.59;66.93;100522.25;5033757;28;20059;-65
2022/11/07 10:23:02;;;;;;;12.07;11.15;;;;;;;17.40;67.40;100516.03;5035382;28;20040;-66
2022/11/07 10:25:56;;;;;;;9.32;8.82;;;;;;;17.15;68.15;100515.63;5043979;28;20515;-65
2022/11/07 10:28:26;;;;;;;11.15;10.13;;;;;;;17.12;68.15;100510.63;5035679;28;20044;-65
2022/11/07 10:30:56;;;;;;;11.70;10.77;;;;;;;17.06;68.59;100514.78;5039797;28;20166;-65
2022/11/07 10:33:31;;;;;;;11.02;10.05;;;;;;;17.12;69.13;100515.44;5044536;28;20127;-65
2022/11/07 10:36:19;;;;;;;10.60;9.90;;;;;;;17.08;68.91;100498.34;5039991;28;20053;-65
2022/11/07 10:38:46;;;;;;;10.45;9.75;;;;;;;17.06;69.31;100509.13;5031731;28;20056;-66
2022/11/07 10:41:19;;;;;;;11.77;10.73;;;;;;;17.13;69.17;100495.38;5035270;28;20056;-67
2022/11/07 10:43:51;;;;;;;11.40;10.40;;;;;;;17.23;68.97;100506.38;5034274;28;20056;-67
2022/11/07 10:46:24;;;;;;;12.48;11.65;;;;;;;17.24;68.72;100510.84;5038971;28;20052;-67
2022/11/07 10:48:57;;;;;;;12.25;11.27;;;;;;;17.32;68.63;100502.72;5039210;28;20048;-66
2022/11/07 10:51:34;;;;;;;9.93;9.13;;;;;;;17.41;68.36;100495.97;5040963;28;20056;-67
2022/11/07 10:54:01;;;;;;;9.07;8.43;;;;;;;17.45;68.03;100496.97;5042386;28;20407;-67
2022/11/07 10:56:27;;;;;;;9.75;9.10;;;;;;;17.67;67.71;100481.88;5047950;28;20061;-67
2022/11/07 10:58:55;;;;;;;10.05;9.32;;;;;;;18.00;66.40;100487.94;5045383;28;20056;-67
2022/11/07 11:01:24;;;;;;;10.57;9.63;;;;;;;18.00;65.38;100467.31;5034193;28;20059;-68
2022/11/07 11:03:52;;;;;;;9.57;8.90;;;;;;;18.00;64.96;100498.41;5037278;28;20423;-67
2022/11/07 11:06:29;;;;;;;9.63;8.88;;;;;;;18.00;64.56;100487.09;5037671;28;20059;-68
2022/11/07 11:08:58;;;;;;;9.90;9.25;;;;;;;17.94;64.24;100463.00;5037178;28;20060;-67
2022/11/07 11:11:33;;;;;;;8.88;8.38;;;;;;;17.98;63.76;100470.50;5040747;28;20072;-68
2022/11/07 11:14:11;;;;;;;9.48;8.88;;;;;;;17.95;64.21;100465.50;5040705;28;20412;-67
2022/11/07 11:16:40;;;;;;;8.95;8.45;;;;;;;18.06;64.67;100474.47;5039728;28;20116;-67
2022/11/07 11:19:20;;;;;;;9.85;9.20;;;;;;;18.22;64.06;100481.28;5025355;28;20085;-67
2022/11/07 11:21:49;;;;;;;10.35;9.48;;;;;;;18.21;64.08;100461.81;5038303;28;20045;-66
2022/11/07 11:24:29;;;;;;;8.93;8.52;;;;;;;18.18;63.95;100446.34;5037367;28;20049;-67
2022/11/07 11:27:18;;;;;;;8.55;8.15;;;;;;;18.19;64.16;100458.50;5038350;28;20405;-67
2022/11/07 11:30:21;;;;;;;9.32;8.57;;;;;;;18.07;63.83;100455.50;5040239;28;20610;-67
2022/11/07 11:33:00;;;;;;;8.23;7.82;;;;;;;18.09;63.36;100459.69;4998011;28;20047;-66
2022/11/07 11:35:30;;;;;;;8.40;7.93;;;;;;;18.12;63.71;100470.31;5033532;28;20052;-66